Terminal Aerodrome Forecast
Issued by NWS

Home | Current Version | Previous Version | Text Only | Print | Product List | Glossary On
Versions: 1 2 3 4 5 6 7 8 9 10 11 12
000
FTUS44 KTSA 030520
TAFBVO
TAF
KBVO 030520Z 0306/0406 VRB04KT P6SM BKN100
     FM031200 VRB03KT P6SM SCT025 BKN040
     FM031800 03006KT P6SM BKN040 PROB30 0320/0324 -TSRA BKN040CB=

USA.gov is the U.S. government's official web portal to all federal, state and local government web resources and services.